createdAt,value
2022-08-01T00:00:09.888Z,6.18
2022-08-01T00:02:41.581Z,4.95
2022-08-01T00:05:10.003Z,5.10
2022-08-01T00:07:37.560Z,5.63
2022-08-01T00:10:06.244Z,4.55
2022-08-01T00:12:33.162Z,5.72
2022-08-01T00:15:00.152Z,6.38
2022-08-01T00:17:27.194Z,7.63
2022-08-01T00:19:54.060Z,5.03
2022-08-01T00:22:20.974Z,7.20
2022-08-01T00:24:47.789Z,4.90
2022-08-01T00:27:14.680Z,11.20
2022-08-01T00:30:12.592Z,7.88
2022-08-01T00:32:30.722Z,6.47
2022-08-01T00:34:57.532Z,7.35
2022-08-01T00:37:24.364Z,7.50
2022-08-01T00:39:51.172Z,7.85
2022-08-01T00:42:18.078Z,10.43
2022-08-01T00:44:44.886Z,8.43
2022-08-01T00:47:11.699Z,9.63
2022-08-01T00:49:38.682Z,11.07
2022-08-01T00:52:06.905Z,8.82
2022-08-01T00:54:34.368Z,10.90
2022-08-01T00:57:01.418Z,15.18
2022-08-01T00:59:28.393Z,12.93
2022-08-01T01:01:56.012Z,10.35
2022-08-01T01:04:23.142Z,10.43
2022-08-01T01:06:54.719Z,9.02
2022-08-01T01:09:36.062Z,13.35
2022-08-01T01:12:41.928Z,11.43
2022-08-01T01:15:30.045Z,10.70
2022-08-01T01:18:01.634Z,14.07
2022-08-01T01:20:44.240Z,15.73
2022-08-01T01:23:45.199Z,13.75
2022-08-01T01:26:46.171Z,16.75
2022-08-01T01:29:23.177Z,9.52
2022-08-01T01:31:56.797Z,13.93
2022-08-01T01:34:25.124Z,11.07
2022-08-01T01:36:55.085Z,13.93
2022-08-01T01:39:23.948Z,12.75
2022-08-01T01:41:51.979Z,9.75
2022-08-01T01:44:19.814Z,12.27
2022-08-01T01:46:48.318Z,12.77
2022-08-01T01:49:16.683Z,11.48
2022-08-01T01:51:57.389Z,12.32
2022-08-01T01:54:34.271Z,13.65
2022-08-01T01:57:03.409Z,16.23
2022-08-01T01:59:32.743Z,12.13
2022-08-01T02:02:05.936Z,13.95
2022-08-01T02:04:37.029Z,11.98
2022-08-01T02:07:04.806Z,15.90
2022-08-01T02:09:32.943Z,11.15
2022-08-01T02:12:09.442Z,17.02
2022-08-01T02:14:38.097Z,13.85
2022-08-01T02:17:05.356Z,15.30
2022-08-01T02:19:38.016Z,9.35
2022-08-01T02:22:28.773Z,17.90
2022-08-01T02:25:12.360Z,11.40
2022-08-01T02:27:55.620Z,9.73
2022-08-01T02:30:25.332Z,10.60
2022-08-01T02:33:04.045Z,9.02
2022-08-01T02:35:36.097Z,7.75
2022-08-01T02:38:26.118Z,9.95
2022-08-01T02:40:55.705Z,7.07
2022-08-01T02:43:26.123Z,10.50
2022-08-01T02:45:55.782Z,11.98
2022-08-01T02:48:26.770Z,8.18
2022-08-01T02:50:55.960Z,6.25
2022-08-01T02:53:43.914Z,5.20
2022-08-01T02:56:14.454Z,5.97
2022-08-01T02:58:42.885Z,9.32
2022-08-01T03:01:10.683Z,6.60
2022-08-01T03:03:38.516Z,6.82
2022-08-01T03:06:06.149Z,9.50
2022-08-01T03:08:35.733Z,8.48
2022-08-01T03:11:04.394Z,4.35
2022-08-01T03:13:33.026Z,6.53
2022-08-01T03:16:01.380Z,6.43
2022-08-01T03:18:29.865Z,7.25
2022-08-01T03:20:59.072Z,13.05
2022-08-01T03:23:38.313Z,6.32
2022-08-01T03:26:06.995Z,5.75
2022-08-01T03:28:34.342Z,7.13
2022-08-01T03:31:02.284Z,3.88
2022-08-01T03:33:29.696Z,5.40
2022-08-01T03:35:57.429Z,4.18
2022-08-01T03:38:27.465Z,6.82
2022-08-01T03:41:03.346Z,6.55
2022-08-01T03:43:36.513Z,4.07
2022-08-01T03:46:09.089Z,8.93
2022-08-01T03:48:40.456Z,4.20
2022-08-01T03:51:08.906Z,7.47
2022-08-01T03:53:37.749Z,5.18
2022-08-01T03:56:11.200Z,4.13
2022-08-01T03:58:41.068Z,8.00
2022-08-01T04:01:15.322Z,11.82
2022-08-01T04:03:43.516Z,8.20
2022-08-01T04:06:11.504Z,7.80
2022-08-01T04:08:39.523Z,5.20
2022-08-01T04:11:06.414Z,7.95
2022-08-01T04:13:37.256Z,6.20
2022-08-01T04:16:05.762Z,6.20
2022-08-01T04:18:33.121Z,8.05
2022-08-01T04:20:59.988Z,10.70
2022-08-01T04:23:28.748Z,3.60
2022-08-01T04:25:58.281Z,6.10
2022-08-01T04:28:26.437Z,5.15
2022-08-01T04:31:01.206Z,8.35
2022-08-01T04:33:30.893Z,6.10
2022-08-01T04:36:01.757Z,5.70
2022-08-01T04:38:32.545Z,9.05
2022-08-01T04:41:09.353Z,7.30
2022-08-01T04:43:37.920Z,6.13
2022-08-01T04:46:06.472Z,6.57
2022-08-01T04:48:35.396Z,6.63
2022-08-01T04:51:02.283Z,6.00
2022-08-01T04:53:29.196Z,11.73
2022-08-01T04:55:56.680Z,8.68
2022-08-01T04:58:23.593Z,6.30
2022-08-01T05:00:50.746Z,7.47
2022-08-01T05:03:17.866Z,5.93
2022-08-01T05:05:45.130Z,12.77
2022-08-01T05:08:11.990Z,6.95
2022-08-01T05:10:39.089Z,10.48
2022-08-01T05:13:07.487Z,5.20
2022-08-01T05:15:37.684Z,12.68
2022-08-01T05:18:04.932Z,10.68
2022-08-01T05:20:31.872Z,12.95
2022-08-01T05:22:58.860Z,8.25
2022-08-01T05:25:55.995Z,9.68
2022-08-01T05:28:12.944Z,6.20
2022-08-01T05:30:46.179Z,7.25
2022-08-01T05:33:12.996Z,6.90
2022-08-01T05:35:48.365Z,10.60
2022-08-01T05:38:16.566Z,7.38
2022-08-01T05:40:43.541Z,7.93
2022-08-01T05:43:10.332Z,9.65
2022-08-01T05:45:37.555Z,8.07
2022-08-01T05:48:04.448Z,12.20
2022-08-01T05:50:31.285Z,16.38
2022-08-01T05:52:58.087Z,7.93
2022-08-01T05:55:24.935Z,5.95
2022-08-01T05:57:51.733Z,8.60
2022-08-01T06:00:18.725Z,12.52
2022-08-01T06:02:45.834Z,8.02
2022-08-01T06:05:13.632Z,6.85
2022-08-01T06:07:41.154Z,11.70
2022-08-01T06:10:08.938Z,8.32
2022-08-01T06:12:36.441Z,13.82
2022-08-01T06:15:04.843Z,17.88
2022-08-01T06:17:31.647Z,13.82
2022-08-01T06:19:58.585Z,7.93
2022-08-01T06:22:25.697Z,16.50
2022-08-01T06:24:52.953Z,14.40
2022-08-01T06:27:22.361Z,10.73
2022-08-01T06:29:53.540Z,10.15
2022-08-01T06:32:26.632Z,11.27
2022-08-01T06:37:20.866Z,13.00
2022-08-01T06:39:47.788Z,16.73
2022-08-01T06:42:15.867Z,13.82
2022-08-01T06:44:42.948Z,15.90
2022-08-01T06:47:09.843Z,15.45
2022-08-01T06:49:36.712Z,15.38
2022-08-01T06:52:04.966Z,17.52
2022-08-01T06:54:32.080Z,12.15
2022-08-01T06:56:58.922Z,9.55
2022-08-01T06:59:25.724Z,25.48
2022-08-01T07:01:52.535Z,14.02
2022-08-01T07:04:19.350Z,12.00
2022-08-01T07:06:46.259Z,19.73
2022-08-01T07:09:14.619Z,26.65
2022-08-01T07:11:42.215Z,19.02
2022-08-01T07:14:09.192Z,20.27
2022-08-01T07:16:36.084Z,23.98
2022-08-01T07:19:03.069Z,18.80
2022-08-01T07:21:40.689Z,19.70
2022-08-01T07:24:12.967Z,17.00
2022-08-01T07:26:52.184Z,20.83
2022-08-01T07:29:25.160Z,14.40
2022-08-01T07:31:54.175Z,16.42
2022-08-01T07:34:22.013Z,13.23
2022-08-01T07:36:48.888Z,13.68
2022-08-01T07:39:15.729Z,16.00
2022-08-01T07:42:05.458Z,17.58
2022-08-01T07:44:29.564Z,15.85
2022-08-01T07:46:56.627Z,18.88
2022-08-01T07:49:23.458Z,21.45
2022-08-01T07:52:03.679Z,13.07
2022-08-01T07:54:35.321Z,21.88
2022-08-01T07:57:03.540Z,15.80
2022-08-01T07:59:30.879Z,10.00
2022-08-01T08:01:58.002Z,14.88
2022-08-01T08:04:25.379Z,20.50
2022-08-01T08:06:53.300Z,16.15
2022-08-01T08:09:20.204Z,16.40
2022-08-01T08:11:48.617Z,13.32
2022-08-01T08:14:19.352Z,23.00
2022-08-01T08:16:46.631Z,14.63
2022-08-01T08:19:13.548Z,10.02
2022-08-01T08:21:41.117Z,24.13
2022-08-01T08:24:25.932Z,23.58
2022-08-01T08:26:56.672Z,18.25
2022-08-01T08:29:24.284Z,18.13
2022-08-01T08:31:53.177Z,15.30
2022-08-01T08:34:20.743Z,13.65
2022-08-01T08:36:48.684Z,21.58
2022-08-01T08:39:17.525Z,15.75
2022-08-01T08:41:49.395Z,20.95
2022-08-01T08:44:17.777Z,17.85
2022-08-01T08:46:46.904Z,15.10
2022-08-01T08:49:18.923Z,12.40
2022-08-01T08:51:49.993Z,18.90
2022-08-01T08:54:18.571Z,15.85
2022-08-01T08:56:47.281Z,15.63
2022-08-01T08:59:14.868Z,14.35
2022-08-01T09:01:43.005Z,16.88
2022-08-01T09:04:10.289Z,17.15
2022-08-01T09:06:37.280Z,17.33
2022-08-01T09:09:04.585Z,13.95
2022-08-01T09:11:31.805Z,19.80
2022-08-01T09:14:11.772Z,26.90
2022-08-01T09:16:47.959Z,13.52
2022-08-01T09:19:40.138Z,17.48
2022-08-01T09:22:10.476Z,16.58
2022-08-01T09:24:38.337Z,16.27
2022-08-01T09:27:22.397Z,10.85
2022-08-01T09:30:01.464Z,17.83
2022-08-01T09:32:35.837Z,17.10
2022-08-01T09:35:31.054Z,10.57
2022-08-01T09:38:19.744Z,14.20
2022-08-01T09:40:58.411Z,13.13
2022-08-01T09:43:28.230Z,9.75
2022-08-01T09:45:59.098Z,15.23
2022-08-01T09:48:28.062Z,17.65
2022-08-01T09:51:03.815Z,11.80
2022-08-01T09:53:50.967Z,20.38
2022-08-01T09:56:21.567Z,12.88
2022-08-01T09:58:58.886Z,12.15
2022-08-01T10:01:37.091Z,17.48
2022-08-01T10:04:12.989Z,9.43
2022-08-01T10:06:43.955Z,12.38
2022-08-01T10:09:12.674Z,16.67
2022-08-01T10:11:45.139Z,8.73
2022-08-01T10:14:17.802Z,12.53
2022-08-01T10:16:53.230Z,14.75
2022-08-01T10:19:25.345Z,22.20
2022-08-01T10:21:59.274Z,9.77
2022-08-01T10:24:30.320Z,9.18
2022-08-01T10:27:06.092Z,9.75
2022-08-01T10:30:05.288Z,10.15
2022-08-01T10:32:39.522Z,11.32
2022-08-01T10:35:14.906Z,14.52
2022-08-01T10:37:52.317Z,13.27
2022-08-01T10:40:37.031Z,10.95
2022-08-01T10:43:04.725Z,14.30
2022-08-01T10:45:32.452Z,7.40
2022-08-01T10:48:15.768Z,13.05
2022-08-01T10:50:50.955Z,10.73
2022-08-01T10:53:30.856Z,5.80
2022-08-01T10:56:01.364Z,11.40
2022-08-01T10:58:42.554Z,15.80
2022-08-01T11:01:19.788Z,14.30
2022-08-01T11:03:59.918Z,10.40
2022-08-01T11:06:34.355Z,12.55
2022-08-01T11:09:16.758Z,8.27
2022-08-01T11:12:13.303Z,10.15
2022-08-01T11:15:29.534Z,7.57
2022-08-01T12:20:56.478Z,8.30
2022-08-01T12:23:24.148Z,6.10
2022-08-01T12:25:54.721Z,9.40
2022-08-01T12:28:22.019Z,6.43
2022-08-01T12:30:50.085Z,9.80
2022-08-01T12:33:19.978Z,6.75
2022-08-01T12:35:47.639Z,10.18
2022-08-01T12:38:24.078Z,7.07
2022-08-01T12:41:07.462Z,9.45
2022-08-01T12:43:35.476Z,4.80
2022-08-01T12:46:02.977Z,6.10
2022-08-01T12:48:32.280Z,7.78
2022-08-01T12:51:02.306Z,10.48
2022-08-01T12:53:40.822Z,10.05
2022-08-01T12:56:10.554Z,7.97
2022-08-01T12:58:37.549Z,6.60
2022-08-01T13:01:07.428Z,3.65
2022-08-01T13:03:34.560Z,7.07
2022-08-01T13:06:01.500Z,5.50
2022-08-01T13:08:33.541Z,5.68
2022-08-01T13:11:15.056Z,8.27
2022-08-01T13:13:53.651Z,14.65
2022-08-01T13:16:27.953Z,3.22
2022-08-01T13:19:01.676Z,8.18
2022-08-01T13:21:53.138Z,10.27
2022-08-01T13:24:28.011Z,7.85
2022-08-01T13:27:01.441Z,9.18
2022-08-01T13:29:39.585Z,7.00
2022-08-01T13:32:29.123Z,11.00
2022-08-01T13:35:08.954Z,5.20
2022-08-01T13:37:38.521Z,5.60
2022-08-01T13:40:07.092Z,5.88
2022-08-01T13:42:34.518Z,6.40
2022-08-01T13:45:02.963Z,7.25
2022-08-01T13:47:32.511Z,8.48
2022-08-01T13:50:03.451Z,4.47
2022-08-01T13:52:31.665Z,8.52
2022-08-01T13:54:59.091Z,12.57
2022-08-01T13:57:26.128Z,8.02
2022-08-01T14:00:07.157Z,6.00
2022-08-01T14:02:34.068Z,7.28
2022-08-01T14:05:02.857Z,5.10
2022-08-01T14:07:29.822Z,12.27
2022-08-01T14:10:18.122Z,7.03
2022-08-01T14:12:45.764Z,4.38
2022-08-01T14:15:12.930Z,7.45
2022-08-01T14:17:40.692Z,4.13
2022-08-01T14:20:14.980Z,5.32
2022-08-01T14:22:41.887Z,6.78
2022-08-01T14:25:09.313Z,5.13
2022-08-01T14:27:37.323Z,4.15
2022-08-01T14:30:05.237Z,7.47
2022-08-01T14:32:34.119Z,6.05
2022-08-01T14:35:06.373Z,5.78
2022-08-01T14:37:37.894Z,4.15
2022-08-01T14:42:38.054Z,6.05
2022-08-01T14:45:09.678Z,3.13
2022-08-01T14:47:41.424Z,6.03
2022-08-01T14:50:12.009Z,3.95
2022-08-01T14:52:40.731Z,7.03
2022-08-01T14:55:09.721Z,5.43
2022-08-01T14:57:37.921Z,2.88
2022-08-01T15:00:08.245Z,5.15
2022-08-01T15:02:35.098Z,6.70
2022-08-01T15:05:01.926Z,4.72
2022-08-01T15:07:28.741Z,4.38
2022-08-01T15:09:55.645Z,3.55
2022-08-01T15:12:22.445Z,4.65
2022-08-01T16:02:48.264Z,8.43
2022-08-01T16:05:17.156Z,6.07
2022-08-01T16:07:59.479Z,7.57
2022-08-01T16:10:29.752Z,2.97
2022-08-01T16:12:56.803Z,4.75
2022-08-01T16:15:36.135Z,5.20
2022-08-01T16:18:04.115Z,10.93
2022-08-01T16:20:31.233Z,7.25
2022-08-01T16:22:58.059Z,7.35
2022-08-01T16:25:24.912Z,8.23
2022-08-01T16:27:51.919Z,8.43
2022-08-01T16:30:18.794Z,4.90
2022-08-01T16:32:51.775Z,8.55
2022-08-01T16:35:20.485Z,5.63
2022-08-01T16:37:47.753Z,4.75
2022-08-01T16:40:14.786Z,5.03
2022-08-01T16:42:41.675Z,4.90
2022-08-01T16:45:13.936Z,4.82
2022-08-01T16:47:41.457Z,4.10
2022-08-01T16:50:09.610Z,5.13
2022-08-01T16:52:41.913Z,4.53
2022-08-01T16:55:10.899Z,5.60
2022-08-01T16:57:38.521Z,3.63
2022-08-01T17:00:07.769Z,8.07
2022-08-01T17:02:36.276Z,6.72
2022-08-01T17:05:08.460Z,7.22
2022-08-01T17:07:39.711Z,10.68
2022-08-01T17:10:07.451Z,8.00
2022-08-01T17:12:35.496Z,8.00
2022-08-01T17:15:02.588Z,8.50
2022-08-01T17:17:29.427Z,9.02
2022-08-01T17:19:56.320Z,6.72
2022-08-01T17:22:23.241Z,3.97
2022-08-01T17:24:51.716Z,4.30
2022-08-01T17:27:19.275Z,8.52
2022-08-01T17:29:46.394Z,5.05
2022-08-01T17:41:56.882Z,8.63
2022-08-01T17:44:25.837Z,5.57
2022-08-01T17:46:53.584Z,8.82
2022-08-01T17:49:45.222Z,12.18
2022-08-01T17:52:08.972Z,8.73
2022-08-01T17:54:37.021Z,11.57
2022-08-01T17:57:04.063Z,5.60
2022-08-01T17:59:35.165Z,7.22
2022-08-01T18:02:04.504Z,9.90
2022-08-01T18:04:33.950Z,7.82
2022-08-01T18:07:01.717Z,6.72
2022-08-01T18:09:32.742Z,8.32
2022-08-01T18:12:03.030Z,6.38
2022-08-01T18:14:32.633Z,6.03
2022-08-01T18:17:11.242Z,9.80
2022-08-01T18:19:39.224Z,10.52
2022-08-01T18:22:28.866Z,6.78
2022-08-01T18:24:53.898Z,10.07
2022-08-01T18:27:20.817Z,8.32
2022-08-01T18:29:48.739Z,8.85
2022-08-01T18:32:15.964Z,9.20
2022-08-01T18:34:42.805Z,8.60
2022-08-01T18:37:12.132Z,7.07
2022-08-01T18:39:40.276Z,8.35
2022-08-01T18:42:07.437Z,10.35
2022-08-01T18:44:34.839Z,8.13
2022-08-01T18:47:01.775Z,13.02
2022-08-01T18:49:28.940Z,9.88
2022-08-01T18:51:58.393Z,10.07
2022-08-01T18:58:32.050Z,7.32
2022-08-01T19:00:59.695Z,12.65
2022-08-01T19:03:26.573Z,6.97
2022-08-01T19:05:53.449Z,14.85
2022-08-01T19:08:20.268Z,10.32
2022-08-01T19:10:47.114Z,10.85
2022-08-01T19:13:14.588Z,6.85
2022-08-01T19:15:41.531Z,9.65
2022-08-01T19:18:09.966Z,5.20
2022-08-01T19:20:42.618Z,7.45
2022-08-01T19:23:28.563Z,9.95
2022-08-01T19:25:57.090Z,8.43
2022-08-01T19:28:26.007Z,6.80
2022-08-01T19:30:54.738Z,10.77
2022-08-01T19:33:21.977Z,9.77
2022-08-01T19:35:52.717Z,4.65
2022-08-01T19:38:19.575Z,9.02
2022-08-01T19:40:46.816Z,7.47
2022-08-01T19:43:15.377Z,8.13
2022-08-01T19:45:42.281Z,12.68
2022-08-01T19:48:10.256Z,6.32
2022-08-01T19:50:41.004Z,10.70
2022-08-01T19:53:10.154Z,6.05
2022-08-01T19:55:39.862Z,7.78
2022-08-01T19:58:28.150Z,7.70
2022-08-01T20:00:55.909Z,9.18
2022-08-01T20:03:23.152Z,8.13
2022-08-01T20:05:51.483Z,8.32
2022-08-01T20:08:20.577Z,10.60
2022-08-01T20:10:48.485Z,12.55
2022-08-01T20:13:16.937Z,20.40
2022-08-01T20:15:44.938Z,8.85
2022-08-01T20:18:11.867Z,7.30
2022-08-01T20:20:38.942Z,7.70
2022-08-01T20:23:10.702Z,11.88
2022-08-01T20:25:48.321Z,16.90
2022-08-01T20:28:16.454Z,6.20
2022-08-01T20:30:44.223Z,14.82
2022-08-01T20:33:12.193Z,12.52
2022-08-01T20:35:53.111Z,9.45
2022-08-01T20:38:27.528Z,6.55
2022-08-01T20:40:58.542Z,11.90
2022-08-01T20:43:28.915Z,8.85
2022-08-01T20:45:56.699Z,5.93
2022-08-01T20:48:26.310Z,8.05
2022-08-01T20:51:12.130Z,11.93
2022-08-01T20:53:41.708Z,10.68
2022-08-01T20:56:40.459Z,12.70
2022-08-01T20:59:54.452Z,13.45
2022-08-01T21:04:52.835Z,8.85
2022-08-01T21:07:50.917Z,9.20
2022-08-01T21:10:20.457Z,12.52
2022-08-01T21:12:47.289Z,11.02
2022-08-01T21:15:30.204Z,14.13
2022-08-01T21:18:05.974Z,11.52
2022-08-01T21:20:34.880Z,9.32
2022-08-01T21:23:25.743Z,11.82
2022-08-01T21:25:53.294Z,9.13
2022-08-01T21:28:21.413Z,6.43
2022-08-01T21:30:53.859Z,9.65
2022-08-01T21:33:23.732Z,12.50
2022-08-01T21:35:55.518Z,12.52
2022-08-01T21:38:26.167Z,13.50
2022-08-01T21:40:55.616Z,11.52
2022-08-01T21:43:23.271Z,13.25
2022-08-01T21:45:57.322Z,6.93
2022-08-01T21:48:26.712Z,8.63
2022-08-01T21:50:54.210Z,11.63
2022-08-01T21:53:38.521Z,8.50
2022-08-01T21:56:36.498Z,8.13
2022-08-01T21:59:18.354Z,10.95
2022-08-01T22:02:02.141Z,16.98
2022-08-01T22:04:43.268Z,12.45
2022-08-01T22:07:12.775Z,9.32
2022-08-01T22:09:42.124Z,10.25
2022-08-01T22:12:12.556Z,7.38
2022-08-01T22:14:46.327Z,13.95
2022-08-01T22:17:24.619Z,13.48
2022-08-01T22:19:54.995Z,12.00
2022-08-01T22:22:44.314Z,5.53
2022-08-01T22:25:11.598Z,9.70
2022-08-01T22:28:05.962Z,7.38
2022-08-01T22:30:32.196Z,10.02
2022-08-01T22:33:07.888Z,8.27
2022-08-01T22:35:45.665Z,8.35
2022-08-01T22:38:13.013Z,8.40
2022-08-01T22:40:49.297Z,10.48
2022-08-01T22:43:29.502Z,7.55
2022-08-01T22:46:26.865Z,8.00
2022-08-01T22:49:30.411Z,13.30
2022-08-01T22:52:06.307Z,10.68
2022-08-01T22:54:39.511Z,13.50
2022-08-01T22:57:19.750Z,11.18
2022-08-01T23:00:04.201Z,9.38
2022-08-01T23:02:39.881Z,16.90
2022-08-01T23:05:10.298Z,15.32
2022-08-01T23:07:46.320Z,9.75
2022-08-01T23:10:13.648Z,8.45
2022-08-01T23:12:41.592Z,14.30
2022-08-01T23:15:09.156Z,7.05
2022-08-01T23:17:36.672Z,21.25
2022-08-01T23:20:06.799Z,13.10
2022-08-01T23:22:35.997Z,11.52
2022-08-01T23:25:06.834Z,10.38
2022-08-01T23:27:55.878Z,12.32
2022-08-01T23:30:26.754Z,11.63
2022-08-01T23:32:54.152Z,6.05
2022-08-01T23:35:21.479Z,7.68
2022-08-01T23:37:51.202Z,15.35
2022-08-01T23:40:18.871Z,10.90
2022-08-01T23:42:45.881Z,7.57
2022-08-01T23:45:12.702Z,12.15
2022-08-01T23:47:39.605Z,12.07
2022-08-01T23:50:11.464Z,14.55
2022-08-01T23:52:48.388Z,12.38
2022-08-01T23:55:17.796Z,9.45
2022-08-01T23:57:44.869Z,9.80
